createdAt,value
2022-10-23T00:02:46.534Z,368.22
2022-10-23T00:07:53.287Z,368.82
2022-10-23T00:13:00.410Z,369.88
2022-10-23T00:18:07.573Z,370.32
2022-10-23T00:23:14.808Z,369.59
2022-10-23T00:28:21.978Z,369.75
2022-10-23T00:33:29.157Z,369.24
2022-10-23T00:38:36.411Z,369.10
2022-10-23T00:43:43.618Z,368.73
2022-10-23T00:48:50.844Z,369.31
2022-10-23T00:54:06.482Z,370.27
2022-10-23T00:59:05.319Z,370.26
2022-10-23T01:04:12.517Z,371.42
2022-10-23T01:09:19.688Z,371.00
2022-10-23T01:14:27.040Z,371.12
2022-10-23T01:19:34.208Z,370.59
2022-10-23T01:24:41.683Z,370.99
2022-10-23T01:29:48.848Z,371.35
2022-10-23T01:34:56.078Z,370.96
2022-10-23T01:40:03.307Z,371.37
2022-10-23T01:45:10.532Z,371.71
2022-10-23T01:50:17.790Z,372.01
2022-10-23T01:55:25.061Z,372.60
2022-10-23T02:00:32.304Z,373.71
2022-10-23T02:05:39.509Z,373.98
2022-10-23T02:10:46.733Z,373.44
2022-10-23T02:15:53.922Z,374.46
2022-10-23T02:21:01.221Z,373.55
2022-10-23T02:26:08.446Z,373.98
2022-10-23T02:31:15.606Z,374.75
2022-10-23T02:36:22.783Z,376.34
2022-10-23T02:41:30.063Z,375.82
2022-10-23T02:46:37.228Z,376.36
2022-10-23T02:51:44.384Z,375.89
2022-10-23T02:56:51.639Z,377.60
2022-10-23T03:01:58.987Z,377.37
2022-10-23T03:07:06.091Z,377.67
2022-10-23T03:12:13.294Z,377.88
2022-10-23T03:17:20.468Z,378.59
2022-10-23T03:22:27.692Z,378.37
2022-10-23T03:27:34.860Z,379.02
2022-10-23T03:32:42.446Z,378.86
2022-10-23T03:37:49.246Z,378.52
2022-10-23T03:42:56.506Z,378.62
2022-10-23T03:48:03.661Z,379.49
2022-10-23T03:53:10.830Z,379.46
2022-10-23T03:58:18.027Z,379.60
2022-10-23T04:03:25.244Z,380.24
2022-10-23T04:08:32.397Z,379.65
2022-10-23T04:13:39.595Z,380.06
2022-10-23T04:18:46.735Z,379.95
2022-10-23T04:23:53.910Z,380.31
2022-10-23T04:29:01.090Z,380.63
2022-10-23T04:34:08.317Z,381.18
2022-10-23T04:39:15.524Z,381.57
2022-10-23T04:44:22.773Z,381.48
2022-10-23T04:49:29.912Z,381.96
2022-10-23T04:54:37.161Z,381.96
2022-10-23T04:59:44.453Z,381.56
2022-10-23T05:04:51.666Z,382.88
2022-10-23T05:09:58.852Z,383.52
2022-10-23T05:15:06.112Z,383.41
2022-10-23T05:20:13.380Z,384.83
2022-10-23T05:25:20.600Z,384.49
2022-10-23T05:30:27.800Z,385.51
2022-10-23T05:35:35.000Z,384.55
2022-10-23T05:40:42.193Z,385.48
2022-10-23T05:45:49.406Z,384.61
2022-10-23T05:50:56.609Z,385.66
2022-10-23T05:56:03.884Z,385.10
2022-10-23T06:01:11.272Z,384.33
2022-10-23T06:06:18.403Z,384.97
2022-10-23T06:11:25.653Z,384.53
2022-10-23T06:16:32.891Z,385.17
2022-10-23T06:21:40.037Z,384.16
2022-10-23T06:26:47.266Z,383.11
2022-10-23T06:31:54.489Z,381.75
2022-10-23T06:37:01.664Z,381.89
2022-10-23T06:42:08.868Z,382.39
2022-10-23T06:52:42.101Z,382.08
2022-10-23T06:57:30.481Z,381.85
2022-10-23T07:02:37.701Z,381.34
2022-10-23T07:07:44.891Z,381.27
2022-10-23T07:12:52.087Z,379.95
2022-10-23T07:17:59.284Z,380.18
2022-10-23T07:23:06.489Z,379.92
2022-10-23T07:28:13.691Z,380.39
2022-10-23T07:33:20.969Z,381.07
2022-10-23T07:38:28.114Z,381.78
2022-10-23T07:43:35.317Z,381.62
2022-10-23T07:48:42.536Z,381.61
2022-10-23T07:53:49.727Z,381.81
2022-10-23T07:58:56.924Z,381.65
2022-10-23T08:04:04.117Z,381.79
2022-10-23T08:09:11.263Z,381.28
2022-10-23T08:14:18.538Z,381.15
2022-10-23T08:19:25.692Z,383.13
2022-10-23T08:24:32.824Z,382.39
2022-10-23T08:29:40.064Z,383.67
2022-10-23T08:34:47.273Z,384.87
2022-10-23T08:39:54.498Z,385.11
2022-10-23T08:45:01.691Z,386.23
2022-10-23T08:50:08.897Z,386.67
2022-10-23T08:55:16.076Z,387.07
2022-10-23T09:00:23.283Z,387.78
2022-10-23T09:05:30.525Z,386.66
2022-10-23T09:10:37.703Z,387.50
2022-10-23T09:15:46.181Z,387.93
2022-10-23T09:20:53.448Z,387.99
2022-10-23T09:26:00.659Z,389.85
2022-10-23T09:31:11.018Z,390.47
2022-10-23T09:36:15.800Z,390.58
2022-10-23T09:41:22.977Z,391.70
2022-10-23T09:46:30.274Z,391.38
2022-10-23T09:51:37.552Z,391.16
2022-10-23T09:56:44.777Z,390.57
2022-10-23T10:01:52.121Z,390.58
2022-10-23T10:06:59.248Z,391.20
2022-10-23T10:12:06.607Z,390.97
2022-10-23T10:17:13.816Z,390.62
2022-10-23T10:22:21.068Z,390.49
2022-10-23T10:27:28.204Z,391.29
2022-10-23T10:32:35.422Z,392.50
2022-10-23T10:37:44.845Z,392.64
2022-10-23T10:42:49.789Z,393.62
2022-10-23T10:47:56.924Z,393.65
2022-10-23T10:53:04.154Z,394.46
2022-10-23T10:58:11.288Z,393.98
2022-10-23T11:03:18.476Z,395.41
2022-10-23T11:08:25.673Z,395.74
2022-10-23T11:13:32.851Z,396.37
2022-10-23T11:18:40.051Z,397.53
2022-10-23T11:23:47.255Z,398.70
2022-10-23T11:28:54.403Z,400.66
2022-10-23T11:34:01.568Z,399.96
2022-10-23T11:39:09.001Z,401.44
2022-10-23T11:44:16.278Z,402.36
2022-10-23T11:49:23.597Z,401.27
2022-10-23T11:54:31.059Z,402.23
2022-10-23T11:59:38.220Z,401.81
2022-10-23T12:04:45.428Z,402.90
2022-10-23T12:09:52.938Z,402.88
2022-10-23T12:15:00.155Z,403.84
2022-10-23T12:20:07.343Z,405.35
2022-10-23T12:25:14.658Z,406.34
2022-10-23T12:30:21.855Z,406.23
2022-10-23T12:35:29.253Z,406.11
2022-10-23T12:40:36.585Z,406.91
2022-10-23T12:45:43.785Z,407.21
2022-10-23T12:50:51.270Z,408.00
2022-10-23T13:01:05.905Z,406.26
2022-10-23T13:06:12.989Z,405.47
2022-10-23T13:11:20.425Z,406.62
2022-10-23T13:16:27.727Z,408.33
2022-10-23T13:21:35.172Z,408.86
2022-10-23T13:26:42.901Z,407.33
2022-10-23T13:31:50.443Z,407.37
2022-10-23T13:36:57.778Z,407.16
2022-10-23T13:42:05.050Z,407.72
2022-10-23T13:47:12.339Z,408.33
2022-10-23T13:52:19.768Z,409.40
2022-10-23T13:57:27.023Z,409.31
2022-10-23T14:02:34.288Z,409.22
2022-10-23T14:07:41.816Z,409.17
2022-10-23T14:12:48.770Z,409.42
2022-10-23T14:17:59.482Z,409.35
2022-10-23T14:23:04.444Z,409.94
2022-10-23T14:28:11.994Z,409.18
2022-10-23T14:33:19.374Z,409.05
2022-10-23T14:38:26.889Z,409.60
2022-10-23T14:43:34.356Z,410.61
2022-10-23T14:48:45.434Z,409.91
2022-10-23T14:53:49.220Z,410.59
2022-10-23T14:58:56.664Z,410.86
2022-10-23T15:04:04.127Z,411.51
2022-10-23T15:09:11.744Z,411.22
2022-10-23T15:14:19.986Z,412.22
2022-10-23T15:19:27.373Z,411.81
2022-10-23T15:24:34.808Z,410.97
2022-10-23T15:29:42.009Z,411.21
2022-10-23T15:34:49.251Z,410.94
2022-10-23T15:39:58.403Z,410.95
2022-10-23T15:45:03.724Z,411.49
2022-10-23T15:50:10.952Z,410.68
2022-10-23T15:55:18.531Z,407.42
2022-10-23T16:00:25.924Z,407.00
2022-10-23T16:05:33.041Z,406.38
2022-10-23T16:10:40.380Z,405.48
2022-10-23T16:15:47.644Z,404.28
2022-10-23T16:20:54.881Z,403.99
2022-10-23T16:26:02.091Z,403.62
2022-10-23T16:31:09.395Z,402.12
2022-10-23T16:36:16.600Z,400.98
2022-10-23T16:41:24.082Z,399.43
2022-10-23T16:46:31.623Z,399.22
2022-10-23T16:51:39.018Z,399.51
2022-10-23T16:56:46.725Z,399.90
2022-10-23T17:01:54.488Z,400.42
2022-10-23T17:07:01.948Z,398.82
2022-10-23T17:12:09.667Z,399.53
2022-10-23T17:17:17.310Z,400.61
2022-10-23T17:22:24.896Z,399.77
2022-10-23T17:27:32.534Z,401.18
2022-10-23T17:32:40.152Z,402.58
2022-10-23T17:37:47.692Z,402.23
2022-10-23T17:42:55.249Z,403.83
2022-10-23T17:48:02.891Z,404.29
2022-10-23T17:53:10.987Z,405.70
2022-10-23T17:58:18.399Z,405.92
2022-10-23T18:03:26.249Z,405.80
2022-10-23T18:08:33.737Z,405.83
2022-10-23T18:13:41.350Z,405.64
2022-10-23T18:18:48.984Z,406.28
2022-10-23T18:23:56.678Z,407.67
2022-10-23T18:29:04.010Z,408.21
2022-10-23T18:34:11.522Z,407.51
2022-10-23T18:39:19.064Z,408.08
2022-10-23T18:44:27.233Z,408.40
2022-10-23T18:49:37.029Z,409.72
2022-10-23T18:54:46.359Z,409.78
2022-10-23T18:59:53.922Z,409.37
2022-10-23T19:05:01.610Z,408.53
2022-10-23T19:10:09.302Z,407.54
2022-10-23T19:15:17.019Z,407.30
2022-10-23T19:20:24.520Z,407.04
2022-10-23T19:25:31.947Z,405.53
2022-10-23T19:30:39.561Z,404.28
2022-10-23T19:35:47.297Z,398.91
2022-10-23T19:40:54.897Z,394.62
2022-10-23T19:46:04.972Z,389.31
2022-10-23T19:51:10.245Z,385.49
2022-10-23T19:56:17.934Z,384.10
2022-10-23T20:01:25.817Z,383.04
2022-10-23T20:06:33.698Z,382.63
2022-10-23T20:11:41.000Z,382.56
2022-10-23T20:16:51.134Z,383.81
2022-10-23T20:21:56.132Z,384.58
2022-10-23T20:27:03.470Z,383.32
2022-10-23T20:32:10.713Z,383.26
2022-10-23T20:37:18.157Z,382.21
2022-10-23T20:42:25.378Z,382.07
2022-10-23T20:47:32.579Z,380.73
2022-10-23T20:52:39.797Z,379.20
2022-10-23T20:57:47.230Z,379.36
2022-10-23T21:02:54.624Z,378.19
2022-10-23T21:08:01.692Z,377.67
2022-10-23T21:13:08.984Z,378.71
2022-10-23T21:18:26.519Z,380.01
2022-10-23T21:23:23.443Z,379.79
2022-10-23T21:28:30.664Z,377.11
2022-10-23T21:33:37.862Z,375.55
2022-10-23T21:38:45.028Z,376.45
2022-10-23T21:43:52.225Z,375.84
2022-10-23T21:48:59.441Z,376.33
2022-10-23T21:54:06.645Z,375.74
2022-10-23T21:59:13.851Z,375.27
2022-10-23T22:04:21.075Z,377.30
2022-10-23T22:09:28.358Z,377.01
2022-10-23T22:14:35.538Z,375.04
2022-10-23T22:19:42.745Z,374.62
2022-10-23T22:24:49.930Z,374.02
2022-10-23T22:29:57.372Z,375.05
2022-10-23T22:35:04.624Z,374.24
2022-10-23T22:40:11.827Z,376.59
2022-10-23T22:45:18.980Z,375.56
2022-10-23T22:50:26.251Z,374.46
2022-10-23T22:55:33.526Z,373.60
2022-10-23T23:00:42.903Z,374.53
2022-10-23T23:05:47.924Z,374.55
2022-10-23T23:10:55.128Z,374.85
2022-10-23T23:16:02.311Z,374.24
2022-10-23T23:21:09.476Z,374.52
2022-10-23T23:26:16.738Z,372.69
2022-10-23T23:31:23.904Z,371.88
2022-10-23T23:36:31.056Z,372.24
2022-10-23T23:41:38.251Z,375.56
2022-10-23T23:46:45.739Z,376.51
2022-10-23T23:51:52.956Z,376.14
2022-10-23T23:57:00.198Z,375.02
